Helene — V2BK5 — position and weather

sailwx.info

Track history (hours):
 
Tides and Currents Weather Stations Pressure Air Temp Water Temp Dewpoint Dewpoint Depression Visibility Wind Speed Wind Dir Waves Ship Positions

Helene

Last reported at 2014-Aug-09 15:13 UTC. Time now 2014-Aug-27 13:07 UTC.
Position N 36°30' W 002°05'.
Warning: this ship's position is 17 days out of date.

Length 139 m; draft 8.4 m.

Type: Ship. MMSI: 304846000.

Date/timePositionNaut miles runAvg speedWind from/ knotsBaromVisibWave heightAir tempDewpointWater temp
2014-Aug-09 15:13N 36°30' W 002°05'1215.8
2014-Aug-09 14:28N 36°37' W 001°54'4313.3
2014-Aug-09 11:13N 37°06' W 001°14'1412.5
2014-Aug-09 10:04N 37°15' W 001°00'712.9
2014-Aug-09 09:31N 37°20' W 000°54'1313.0
2014-Aug-09 08:29N 37°29' W 000°41'1212.7
2014-Aug-09 07:32N 37°38' W 000°30'1313.1
2014-Aug-09 06:33N 37°49' W 000°22'1312.7
2014-Aug-09 05:33N 37°59' W 000°13'1313.0
2014-Aug-09 04:33N 38°10' W 000°04'1313.0
2014-Aug-09 03:33N 38°21' E 000°05'1312.9
2014-Aug-09 02:33N 38°32' E 000°14'1312.9
2014-Aug-09 01:33N 38°43' E 000°23'2712.3
2014-Aug-08 23:21N 39°08' E 000°10'2212.2
2014-Aug-08 21:31N 39°28' W 000°02'1111.7
2014-Aug-08 20:33N 39°37' W 000°11'3 0.1
2014-Aug-07 09:19N 39°39' W 000°13'3 3.5
2014-Aug-07 08:23N 39°37' W 000°10'66 1.8
2014-Aug-05 20:19N 38°36' E 000°24'1112.8
2014-Aug-05 19:28N 38°28' E 000°16'2912.8
2014-Aug-05 17:14N 38°04' W 000°03'1212.7
2014-Aug-05 16:19N 37°54' W 000°12'1212.8
2014-Aug-05 15:21N 37°44' W 000°20'1113.3
2014-Aug-05 14:33N 37°35' W 000°29'1313.1
2014-Aug-05 13:33N 37°26' W 000°40'1313.2
2014-Aug-05 12:33N 37°17' W 000°53'  
2014-Aug-01 16:14N 36°01' W 005°22'  
Track history (hours):
 
Tides and Currents Weather Stations Pressure Air Temp Water Temp Dewpoint Dewpoint Depression Visibility Wind Speed Wind Dir Waves Ship Positions

Helene

Last reported at 2014-Aug-09 15:13 UTC. Time now 2014-Aug-27 13:07 UTC.
Position N 36°30' W 002°05'.
Warning: this ship's position is 17 days out of date.

Length 139 m; draft 8.4 m.

Type: Ship. MMSI: 304846000.

Date/timePositionNaut miles runAvg speedWind from/ knotsBaromVisibWave heightAir tempDewpointWater temp
2014-Aug-09 15:13N 36°30' W 002°05'1215.8
2014-Aug-09 14:28N 36°37' W 001°54'4313.3
2014-Aug-09 11:13N 37°06' W 001°14'1412.5
2014-Aug-09 10:04N 37°15' W 001°00'712.9
2014-Aug-09 09:31N 37°20' W 000°54'1313.0
2014-Aug-09 08:29N 37°29' W 000°41'1212.7
2014-Aug-09 07:32N 37°38' W 000°30'1313.1
2014-Aug-09 06:33N 37°49' W 000°22'1312.7
2014-Aug-09 05:33N 37°59' W 000°13'1313.0
2014-Aug-09 04:33N 38°10' W 000°04'1313.0
2014-Aug-09 03:33N 38°21' E 000°05'1312.9
2014-Aug-09 02:33N 38°32' E 000°14'1312.9
2014-Aug-09 01:33N 38°43' E 000°23'2712.3
2014-Aug-08 23:21N 39°08' E 000°10'2212.2
2014-Aug-08 21:31N 39°28' W 000°02'1111.7
2014-Aug-08 20:33N 39°37' W 000°11'3 0.1
2014-Aug-07 09:19N 39°39' W 000°13'3 3.5
2014-Aug-07 08:23N 39°37' W 000°10'66 1.8
2014-Aug-05 20:19N 38°36' E 000°24'1112.8
2014-Aug-05 19:28N 38°28' E 000°16'2912.8
2014-Aug-05 17:14N 38°04' W 000°03'1212.7
2014-Aug-05 16:19N 37°54' W 000°12'1212.8
2014-Aug-05 15:21N 37°44' W 000°20'1113.3
2014-Aug-05 14:33N 37°35' W 000°29'1313.1
2014-Aug-05 13:33N 37°26' W 000°40'1313.2
2014-Aug-05 12:33N 37°17' W 000°53'  
2014-Aug-01 16:14N 36°01' W 005°22'  

Dump ship's entire track history